Nearby METAR Reports

 

KPBH - Phillips, Wisconsin, USA
Distance from station: SE 13mi, 21km
Updated: 04/03/2020 9:35pm
Snow, Overcast
Snow, Overcast
 Wind from WNW
Wind: WNW 9 mph , 15 km/h
Temperature: 27°F , -3°C
Wind Chill: 18°F , -8°C
Dew Point: 27°F , -3°C
Humidity: 100%
Barometer: 30.09 inHg , 1019 hPa
Summary: Snow
Clouds: Overcast
Visibility: 3/4 mile , 1.2 km
Cloud details: Overcast 900 ft
2020/04/04 02:35 KPBH 040235Z AUTO 30008KT 3/4SM SN OVC009 M03/M03 A3009 RMK AO2 P0003 T10301030
KRCX - Ladysmith/Rusk, Wisconsin, USA
Distance from station: SW 29mi, 46km
Updated: 04/03/2020 9:15pm
Light snow, Overcast
Light snow, Overcast
 Wind from NW
Wind: NW 12 mph , 19 km/h, Gust: 18 mph , 30 km/h
Temperature: 28°F , -2°C
Wind Chill: 18°F , -8°C
Dew Point: 27°F , -3°C
Humidity: 93%
Barometer: 30.13 inHg , 1020.3 hPa
Summary: Light Snow
Clouds: Overcast
Visibility: 4 miles , 6 km
Cloud details: Partly cloudy 900 ft
Mostly cloudy 2000 ft
Overcast 4000 ft
2020/04/04 02:15 KRCX 040215Z AUTO 32010G16KT 4SM -SN SCT009 BKN020 OVC040 M02/M03 A3013 RMK AO2 T10251026
 
KD25 - Manitowish Water, Wisconsin, USA
Distance from station: ENE 41mi, 66km
Updated: 04/03/2020 9:15pm
Light snow, Overcast
Light snow, Overcast
 Wind from NW
Wind: NW 12 mph , 19 km/h, Gust: 16 mph , 26 km/h
Temperature: 28°F , -2°C
Wind Chill: 18°F , -8°C
Dew Point: 28°F , -2°C
Humidity: 100%
Barometer: 30.06 inHg , 1017.9 hPa
Summary: Light Snow
Clouds: Overcast
Visibility: 1 3/4 miles , 2.8 km
Cloud details: Mostly cloudy 700 ft
Mostly cloudy 1500 ft
Overcast 2000 ft
2020/04/04 02:15 KD25 040215Z AUTO 32010G14KT 1 3/4SM -SN BKN007 BKN015 OVC020 M02/M02 A3006 RMK AO2 T10201020
KHYR - Hayward, Wisconsin, USA
Distance from station: WNW 42mi, 68km
Updated: 04/03/2020 8:53pm
Overcast
Overcast
 Wind from WNW
Wind: WNW 8 mph , 13 km/h
Temperature: 27°F , -3°C
Wind Chill: 19°F , -7°C
Dew Point: 21°F , -6°C
Humidity: 80%
Barometer: 30.15 inHg , 1021 hPa
Clouds: Overcast
Visibility: 10 miles , 16 km
Cloud details: Overcast 1100 ft
2020/04/04 01:53 KHYR 040153Z AUTO 29007KT 250V340 10SM OVC011 M03/M06 A3015 RMK AO2 SNE06 SLP222 P0000 T10331061
 
KARV - Minocqua/Woodruf, Wisconsin, USA
Distance from station: E 44mi, 71km
Updated: 04/03/2020 9:15pm
Overcast
Overcast
 Wind from NW
Wind: NW 7 mph , 11 km/h
Temperature: 34°F , 1°C
Wind Chill: 28°F , -2°C
Dew Point: 30°F , -1°C
Humidity: 87%
Barometer: 30.04 inHg , 1017.3 hPa
Clouds: Overcast
Visibility: 7 miles , 11 km
Cloud details: Mostly cloudy 700 ft
Mostly cloudy 1200 ft
Overcast 3500 ft
2020/04/04 02:15 KARV 040215Z AUTO 32006KT 7SM UP BKN007 BKN012 OVC035 01/M01 A3004 RMK AO2 T00111006
KTKV - Tomahawk Regnl, Wisconsin, USA
Distance from station: ESE 46mi, 74km
Updated: 04/03/2020 9:15pm
Drizzle, Overcast
Drizzle, Overcast
 Wind from WNW
Wind: WNW 3 mph , 6 km/h
Temperature: 32°F , 0°C
Dew Point: 30°F , -1°C
Humidity: 93%
Barometer: 30.06 inHg , 1017.9 hPa
Summary: Drizzle
Clouds: Overcast
Visibility: 5 miles , 8 km
Cloud details: Mostly cloudy 900 ft
Overcast 2500 ft
2020/04/04 02:15 KTKV 040215Z AUTO 30003KT 5SM DZ BKN009 OVC025 00/M01 A3006 RMK AO2 T00001007